Time;durP1;ratioP1;P1;durP2;ratioP2;P2;SDS_P1;SDS_P2;PMS_P1;PMS_P2;Temp;Humidity;BMP_temperature;BMP_pressure;BME280_temperature;BME280_humidity;BME280_pressure;Samples;Min_cycle;Max_cycle;Signal;HPM_P1;HPM_P2
2022/12/19 00:01:15;;;;;;;37.93;21.77;;;1.60;99.90;;;;;;5026251;28;20189;-63
2022/12/19 00:03:45;;;;;;;33.03;19.85;;;1.50;99.90;;;;;;5023275;28;20798;-64
2022/12/19 00:06:12;;;;;;;29.35;19.75;;;1.60;99.90;;;;;;5028940;28;20259;-64
2022/12/19 00:08:39;;;;;;;29.10;18.42;;;1.50;99.90;;;;;;5021783;28;20277;-64
2022/12/19 00:11:05;;;;;;;33.83;19.17;;;1.60;99.90;;;;;;5028759;28;20559;-66
2022/12/19 00:13:32;;;;;;;32.50;21.77;;;1.50;99.90;;;;;;5024460;28;20185;-64
2022/12/19 00:16:03;;;;;;;35.05;21.10;;;1.50;99.90;;;;;;5028209;28;20217;-64
2022/12/19 00:18:29;;;;;;;29.95;17.90;;;1.90;99.90;;;;;;5027462;28;20190;-64
2022/12/19 00:21:01;;;;;;;29.33;19.60;;;1.60;99.90;;;;;;5028192;28;20186;-64
2022/12/19 00:23:28;;;;;;;32.53;21.25;;;1.50;99.90;;;;;;5024102;28;21021;-64
2022/12/19 00:25:54;;;;;;;35.45;20.70;;;1.60;99.90;;;;;;5023801;28;20208;-65
2022/12/19 00:28:20;;;;;;;30.60;19.87;;;1.50;99.90;;;;;;5025263;28;20183;-64
2022/12/19 00:30:46;;;;;;;31.90;20.10;;;1.50;99.90;;;;;;5020913;28;20807;-64
2022/12/19 00:33:12;;;;;;;32.27;19.37;;;1.30;99.90;;;;;;5024117;28;20213;-65
2022/12/19 00:35:37;;;;;;;32.47;20.40;;;1.20;99.90;;;;;;5026889;28;20476;-64
2022/12/19 00:38:03;;;;;;;29.33;19.13;;;1.70;99.90;;;;;;5025555;28;20190;-65
2022/12/19 00:40:29;;;;;;;29.40;20.37;;;1.30;99.90;;;;;;5026271;28;20179;-65
2022/12/19 00:42:54;;;;;;;35.10;21.53;;;1.30;99.90;;;;;;5028008;28;20190;-65
2022/12/19 00:45:20;;;;;;;29.73;19.30;;;1.30;99.90;;;;;;5026897;28;20488;-64
2022/12/19 00:47:46;;;;;;;31.60;20.88;;;1.30;99.90;;;;;;5024946;28;20711;-64
2022/12/19 00:50:12;;;;;;;31.47;21.03;;;1.40;99.90;;;;;;5025338;28;20269;-63
2022/12/19 00:52:37;;;;;;;31.47;20.67;;;1.10;99.90;;;;;;5023235;28;20190;-65
2022/12/19 00:55:03;;;;;;;30.70;20.10;;;1.00;99.90;;;;;;5022840;28;20222;-65
2022/12/19 00:57:29;;;;;;;34.77;20.93;;;1.10;99.90;;;;;;5033884;28;20667;-65
2022/12/19 00:59:54;;;;;;;34.20;20.47;;;1.30;99.90;;;;;;5035846;28;21035;-65
2022/12/19 01:02:20;;;;;;;31.57;19.83;;;1.40;99.90;;;;;;5033390;28;20277;-65
2022/12/19 01:04:45;;;;;;;31.83;19.57;;;1.40;99.90;;;;;;5026688;28;20190;-65
2022/12/19 01:07:11;;;;;;;32.07;19.97;;;1.00;99.90;;;;;;5034635;28;20659;-64
2022/12/19 01:09:37;;;;;;;32.60;20.00;;;1.70;99.90;;;;;;5029753;28;20201;-65
2022/12/19 01:14:50;;;;;;;27.20;18.55;;;1.50;99.90;;;;;;5024799;28;20637;-63
2022/12/19 01:17:16;;;;;;;29.00;19.92;;;1.70;99.90;;;;;;5030501;28;20205;-64
2022/12/19 01:19:41;;;;;;;28.47;20.53;;;1.60;99.90;;;;;;5030223;28;20556;-63
2022/12/19 01:22:07;;;;;;;34.00;20.17;;;1.70;99.90;;;;;;5030272;28;20282;-64
2022/12/19 01:24:32;;;;;;;39.63;21.80;;;1.60;99.90;;;;;;5024608;28;20259;-65
2022/12/19 01:26:58;;;;;;;32.17;19.47;;;1.80;99.90;;;;;;5033239;28;20185;-65
2022/12/19 01:29:23;;;;;;;30.03;18.87;;;1.50;99.90;;;;;;5026817;28;20654;-65
2022/12/19 01:31:49;;;;;;;30.90;20.67;;;1.80;99.90;;;;;;5029262;28;20190;-64
2022/12/19 01:34:15;;;;;;;33.10;19.77;;;1.30;99.90;;;;;;5028984;28;20210;-65
2022/12/19 01:36:40;;;;;;;30.27;20.03;;;2.00;99.90;;;;;;5029231;28;20289;-65
2022/12/19 01:39:07;;;;;;;32.53;19.67;;;2.00;99.90;;;;;;5026657;28;20236;-63
2022/12/19 01:41:32;;;;;;;31.70;20.73;;;1.90;99.90;;;;;;5031051;28;20191;-64
2022/12/19 01:44:05;;;;;;;28.97;20.37;;;1.80;99.90;;;;;;5030575;28;20199;-65
2022/12/19 01:46:47;;;;;;;27.75;18.30;;;1.80;99.90;;;;;;5029225;28;20297;-66
2022/12/19 01:49:15;;;;;;;34.97;20.40;;;1.90;99.90;;;;;;5022537;28;20189;-65
2022/12/19 01:51:44;;;;;;;33.58;19.98;;;1.90;99.90;;;;;;5032006;28;20201;-64
2022/12/19 01:54:13;;;;;;;30.65;19.35;;;2.00;99.90;;;;;;5028756;28;20198;-64
2022/12/19 01:56:46;;;;;;;29.10;19.30;;;1.50;99.90;;;;;;5023855;28;20759;-64
2022/12/19 01:59:18;;;;;;;30.50;19.35;;;2.10;99.90;;;;;;5029003;28;20287;-64
2022/12/19 02:01:44;;;;;;;24.27;18.25;;;1.90;99.90;;;;;;5028092;28;20178;-64
2022/12/19 02:04:11;;;;;;;28.47;19.30;;;1.90;99.90;;;;;;5026937;28;20198;-63
2022/12/19 02:06:41;;;;;;;30.52;19.60;;;1.40;99.90;;;;;;5029561;28;20222;-64
2022/12/19 02:09:07;;;;;;;34.17;21.63;;;2.00;99.90;;;;;;5028244;28;20178;-64
2022/12/19 02:11:32;;;;;;;28.43;19.30;;;1.30;99.90;;;;;;5032149;28;20208;-64
2022/12/19 02:13:58;;;;;;;29.87;19.80;;;1.40;99.90;;;;;;5031699;28;20498;-64
2022/12/19 02:17:09;;;;;;;32.30;20.07;;;2.20;99.90;;;;;;5026970;28;20232;-64
2022/12/19 02:19:41;;;;;;;31.38;19.90;;;2.10;99.90;;;;;;5027288;28;20191;-64
2022/12/19 02:22:19;;;;;;;30.27;18.95;;;2.10;99.90;;;;;;5029127;28;20181;-64
2022/12/19 02:25:06;;;;;;;30.92;18.90;;;2.40;99.90;;;;;;5027577;28;20267;-64
2022/12/19 02:28:01;;;;;;;29.80;18.83;;;2.50;99.90;;;;;;5029266;28;20652;-64
2022/12/19 02:30:56;;;;;;;28.50;19.13;;;2.50;99.90;;;;;;5026901;28;20214;-64
2022/12/19 02:33:41;;;;;;;32.83;21.20;;;2.30;99.90;;;;;;5028048;28;20182;-64
2022/12/19 02:36:15;;;;;;;33.15;21.60;;;2.10;99.90;;;;;;5030223;28;20676;-64
2022/12/19 02:38:47;;;;;;;30.75;20.65;;;2.60;99.90;;;;;;5028737;28;20194;-64
2022/12/19 02:41:17;;;;;;;31.17;20.50;;;2.00;99.90;;;;;;5025072;28;20233;-64
2022/12/19 02:43:47;;;;;;;32.72;21.05;;;2.20;99.90;;;;;;5026743;28;20194;-64
2022/12/19 02:46:15;;;;;;;28.77;20.63;;;2.20;99.90;;;;;;5024837;28;20699;-63
2022/12/19 02:48:41;;;;;;;31.90;20.80;;;1.80;99.90;;;;;;5024328;28;20248;-64
2022/12/19 02:51:07;;;;;;;29.50;20.48;;;2.50;99.90;;;;;;5029214;28;20274;-64
2022/12/19 02:53:34;;;;;;;34.22;21.48;;;2.20;99.90;;;;;;5027724;28;20213;-64
2022/12/19 02:56:25;;;;;;;31.45;20.83;;;2.60;99.90;;;;;;5028011;28;20264;-64
2022/12/19 02:59:37;;;;;;;29.50;20.38;;;2.30;99.90;;;;;;5027684;28;20182;-62
2022/12/19 03:02:22;;;;;;;27.50;18.83;;;2.30;99.90;;;;;;5036713;28;20206;-62
2022/12/19 03:04:59;;;;;;;32.72;20.30;;;2.50;99.90;;;;;;5027524;28;20190;-65
2022/12/19 03:07:35;;;;;;;27.35;18.63;;;2.50;99.90;;;;;;5026872;28;20233;-64
2022/12/19 03:10:27;;;;;;;34.00;20.15;;;2.70;99.90;;;;;;5023469;28;20189;-64
2022/12/19 03:12:57;;;;;;;28.92;19.45;;;2.80;99.90;;;;;;5028344;28;20211;-63
2022/12/19 03:15:24;;;;;;;29.98;19.95;;;2.50;99.90;;;;;;5026981;28;20214;-63
2022/12/19 03:17:50;;;;;;;32.55;20.40;;;2.70;99.90;;;;;;5027682;28;20218;-64
2022/12/19 03:20:27;;;;;;;34.95;21.30;;;2.70;99.90;;;;;;5019481;28;20561;-62
2022/12/19 03:22:53;;;;;;;27.38;18.92;;;2.70;99.90;;;;;;5024629;28;20182;-63
2022/12/19 03:25:20;;;;;;;29.43;19.43;;;2.90;99.90;;;;;;5027086;28;20205;-62
2022/12/19 03:27:48;;;;;;;33.60;20.83;;;2.90;99.90;;;;;;5026276;28;20653;-65
2022/12/19 03:30:14;;;;;;;33.65;22.02;;;2.90;99.90;;;;;;5026237;28;20652;-62
2022/12/19 03:32:42;;;;;;;36.55;21.67;;;2.80;99.90;;;;;;5028885;28;20634;-62
2022/12/19 03:35:25;;;;;;;35.13;22.67;;;2.80;99.90;;;;;;5024134;28;20218;-62
2022/12/19 03:37:54;;;;;;;35.22;22.05;;;2.60;99.90;;;;;;5025131;28;20698;-62
2022/12/19 03:40:23;;;;;;;31.48;20.38;;;1.90;99.90;;;;;;5028315;28;20214;-62
2022/12/19 03:43:09;;;;;;;29.13;20.13;;;2.70;99.90;;;;;;5027545;28;20179;-62
2022/12/19 03:45:47;;;;;;;29.75;19.90;;;3.00;99.90;;;;;;5027164;28;20757;-62
2022/12/19 03:48:27;;;;;;;29.23;19.85;;;3.00;99.90;;;;;;5023864;28;20190;-62
2022/12/19 03:50:52;;;;;;;32.00;20.65;;;3.00;99.90;;;;;;5024692;28;20230;-64
2022/12/19 03:53:54;;;;;;;35.23;21.43;;;3.00;99.90;;;;;;5028436;28;20260;-63
2022/12/19 03:56:34;;;;;;;30.98;19.88;;;2.90;99.90;;;;;;5022037;28;20210;-62
2022/12/19 03:59:20;;;;;;;33.25;20.65;;;3.00;99.90;;;;;;5032864;28;20185;-62
2022/12/19 04:01:46;;;;;;;27.40;18.25;;;2.90;99.90;;;;;;5025288;28;20191;-63
2022/12/19 04:04:13;;;;;;;29.02;19.92;;;3.00;99.90;;;;;;5023347;28;20316;-63
2022/12/19 04:06:41;;;;;;;35.65;20.67;;;3.00;99.90;;;;;;5026961;28;20214;-64
2022/12/19 04:09:07;;;;;;;28.35;19.08;;;2.60;99.90;;;;;;5028064;28;20186;-63
2022/12/19 04:11:40;;;;;;;30.35;20.17;;;3.30;99.90;;;;;;5025837;28;20210;-63
2022/12/19 04:14:15;;;;;;;29.05;18.67;;;2.50;99.90;;;;;;5027135;28;20183;-62
2022/12/19 04:16:53;;;;;;;27.33;17.63;;;3.00;99.90;;;;;;5025452;28;20209;-64
2022/12/19 04:19:42;;;;;;;29.40;18.77;;;3.10;99.90;;;;;;5028486;28;20178;-64
2022/12/19 04:22:19;;;;;;;28.38;17.27;;;3.40;99.90;;;;;;5027952;28;20258;-64
2022/12/19 04:24:46;;;;;;;25.70;16.35;;;3.50;99.90;;;;;;5023791;28;20601;-64
2022/12/19 04:27:13;;;;;;;27.42;17.77;;;3.50;99.90;;;;;;5029380;28;20197;-64
2022/12/19 04:29:40;;;;;;;23.35;17.15;;;2.90;99.90;;;;;;5021185;28;20273;-64
2022/12/19 04:32:08;;;;;;;29.27;19.25;;;3.40;99.90;;;;;;5023938;28;20217;-64
2022/12/19 04:34:33;;;;;;;26.13;18.45;;;3.40;99.90;;;;;;5026285;28;20217;-64
2022/12/19 04:36:59;;;;;;;28.90;17.83;;;3.40;99.90;;;;;;5028273;28;20183;-64
2022/12/19 04:39:25;;;;;;;29.13;18.30;;;3.30;99.90;;;;;;5023881;28;20186;-64
2022/12/19 04:41:50;;;;;;;27.10;16.70;;;2.80;99.90;;;;;;5029307;28;20663;-64
2022/12/19 04:44:16;;;;;;;21.93;16.10;;;3.40;99.90;;;;;;5030292;28;20197;-64
2022/12/19 04:46:41;;;;;;;23.13;16.30;;;3.30;99.90;;;;;;5020586;28;20555;-64
2022/12/19 04:49:07;;;;;;;23.87;16.70;;;3.70;99.90;;;;;;5028284;28;20221;-62
2022/12/19 04:51:33;;;;;;;28.70;17.80;;;3.70;99.90;;;;;;5030215;28;20186;-63
2022/12/19 04:53:58;;;;;;;24.10;16.70;;;3.60;99.90;;;;;;5025578;28;20448;-64
2022/12/19 04:56:24;;;;;;;26.57;16.87;;;3.10;99.90;;;;;;5028128;28;20218;-62
2022/12/19 04:58:58;;;;;;;23.80;17.03;;;3.60;99.90;;;;;;5028899;28;20277;-62
2022/12/19 05:01:24;;;;;;;27.73;17.65;;;3.80;99.90;;;;;;5023159;28;20545;-62
2022/12/19 05:03:50;;;;;;;26.17;17.48;;;3.80;99.90;;;;;;5023968;28;20698;-63
2022/12/19 05:06:18;;;;;;;32.42;18.40;;;3.70;99.90;;;;;;5025071;28;20632;-62
2022/12/19 05:08:44;;;;;;;26.52;18.73;;;3.70;99.90;;;;;;5019530;28;20201;-62
2022/12/19 05:11:12;;;;;;;24.37;17.60;;;3.60;99.90;;;;;;5028186;28;20183;-62
2022/12/19 05:13:37;;;;;;;26.70;16.95;;;3.70;99.90;;;;;;5019288;28;20449;-63
2022/12/19 05:16:06;;;;;;;24.87;15.93;;;3.50;99.90;;;;;;5029371;28;20217;-64
2022/12/19 05:18:32;;;;;;;26.70;16.13;;;3.60;99.90;;;;;;5028573;28;20189;-63
2022/12/19 05:20:58;;;;;;;26.15;17.30;;;3.70;99.90;;;;;;5028490;28;20240;-63
2022/12/19 05:23:24;;;;;;;29.37;18.90;;;3.80;99.90;;;;;;5027190;28;20210;-64
2022/12/19 05:25:50;;;;;;;24.00;16.23;;;3.90;99.90;;;;;;5028908;28;20215;-64
2022/12/19 05:28:16;;;;;;;28.60;16.67;;;3.90;99.90;;;;;;5024445;28;20449;-62
2022/12/19 05:30:42;;;;;;;24.27;16.47;;;3.30;99.90;;;;;;5024437;28;20446;-62
2022/12/19 05:33:08;;;;;;;25.33;16.05;;;4.00;99.90;;;;;;5027905;28;20460;-62
2022/12/19 05:35:34;;;;;;;25.57;16.67;;;3.70;99.90;;;;;;5029218;28;20299;-63
2022/12/19 05:38:00;;;;;;;27.17;17.83;;;3.20;99.90;;;;;;5024951;28;20271;-62
2022/12/19 05:40:26;;;;;;;26.10;16.67;;;3.80;99.90;;;;;;5028046;28;20626;-63
2022/12/19 05:42:51;;;;;;;25.90;18.40;;;3.90;99.90;;;;;;5024226;28;20837;-62
2022/12/19 05:45:17;;;;;;;32.43;16.90;;;3.70;99.90;;;;;;5027023;28;20898;-64
2022/12/19 05:47:46;;;;;;;23.37;15.60;;;3.70;99.90;;;;;;5027251;28;20210;-62
2022/12/19 05:50:13;;;;;;;21.27;15.98;;;3.80;99.90;;;;;;5028058;28;20765;-62
2022/12/19 05:52:38;;;;;;;22.38;14.95;;;3.70;99.90;;;;;;5030095;28;20232;-63
2022/12/19 05:55:05;;;;;;;25.60;15.97;;;3.90;99.90;;;;;;5027886;28;20668;-62
2022/12/19 05:57:31;;;;;;;23.35;16.35;;;3.80;99.90;;;;;;5028056;28;20191;-62
2022/12/19 05:59:56;;;;;;;24.47;16.70;;;4.30;99.90;;;;;;5022073;28;20678;-63
2022/12/19 06:02:22;;;;;;;28.70;15.47;;;3.30;99.90;;;;;;5021813;28;20270;-63
2022/12/19 06:04:48;;;;;;;23.10;15.80;;;3.90;99.90;;;;;;5026916;28;20303;-64
2022/12/19 06:07:13;;;;;;;21.63;15.97;;;3.50;99.90;;;;;;5023280;28;20453;-64
2022/12/19 06:09:39;;;;;;;22.37;15.47;;;3.80;99.90;;;;;;5022734;28;20187;-64
2022/12/19 06:12:05;;;;;;;23.73;15.63;;;4.00;99.90;;;;;;5024032;28;20218;-64
2022/12/19 06:14:30;;;;;;;23.40;16.47;;;3.70;99.90;;;;;;5031838;28;20691;-64
2022/12/19 06:16:56;;;;;;;26.23;15.40;;;4.00;99.90;;;;;;5027974;28;20467;-62
2022/12/19 06:19:22;;;;;;;23.40;16.52;;;4.20;99.90;;;;;;5022015;28;20186;-62
2022/12/19 06:21:47;;;;;;;23.93;17.20;;;4.20;99.90;;;;;;5024881;28;20182;-62
2022/12/19 06:24:13;;;;;;;23.87;16.53;;;4.30;99.90;;;;;;5022794;28;20183;-62
2022/12/19 06:26:39;;;;;;;24.83;15.70;;;3.80;99.90;;;;;;5026150;28;20212;-62
2022/12/19 06:29:04;;;;;;;26.60;17.07;;;3.60;99.90;;;;;;5027003;28;20195;-62
2022/12/19 06:31:30;;;;;;;19.97;15.93;;;4.00;99.90;;;;;;5024043;28;20282;-62
2022/12/19 06:33:56;;;;;;;24.07;17.13;;;4.50;99.90;;;;;;5025576;28;20629;-63
2022/12/19 06:36:25;;;;;;;23.53;15.97;;;4.20;99.90;;;;;;5027688;28;20218;-62
2022/12/19 06:38:51;;;;;;;25.38;15.98;;;4.30;99.90;;;;;;5022103;28;20245;-62
2022/12/19 06:44:04;;;;;;;25.85;15.70;;;4.30;99.90;;;;;;5020640;28;20242;-62
2022/12/19 06:46:31;;;;;;;26.00;17.15;;;4.00;99.90;;;;;;5022267;28;20611;-62
2022/12/19 06:48:56;;;;;;;21.35;15.55;;;4.00;99.90;;;;;;5026642;28;20195;-62
2022/12/19 06:51:22;;;;;;;23.60;15.57;;;4.20;99.90;;;;;;5023157;28;20181;-62
2022/12/19 06:53:48;;;;;;;21.67;15.77;;;4.10;99.90;;;;;;5027762;28;20653;-63
2022/12/19 06:56:15;;;;;;;22.52;15.90;;;4.40;99.90;;;;;;5022548;28;20495;-62
2022/12/19 06:58:41;;;;;;;26.80;16.40;;;3.40;99.90;;;;;;5024135;28;20187;-62
2022/12/19 07:01:14;;;;;;;22.03;16.03;;;4.00;99.90;;;;;;5023652;28;20885;-63
2022/12/19 07:03:40;;;;;;;24.80;15.40;;;4.10;99.90;;;;;;5021105;28;20195;-62
2022/12/19 07:06:06;;;;;;;27.15;16.35;;;4.10;99.90;;;;;;5016395;28;20219;-62
2022/12/19 07:08:32;;;;;;;23.55;16.40;;;4.00;99.90;;;;;;5024644;28;20188;-63
2022/12/19 07:10:58;;;;;;;22.87;15.17;;;3.70;99.90;;;;;;5024694;28;20181;-62
2022/12/19 07:13:24;;;;;;;24.33;15.57;;;3.90;99.90;;;;;;5026580;28;20644;-62
2022/12/19 07:15:51;;;;;;;19.85;13.85;;;4.10;99.90;;;;;;5028205;28;20860;-63
2022/12/19 07:18:17;;;;;;;19.50;13.60;;;4.30;99.90;;;;;;5021831;28;20760;-62
2022/12/19 07:20:44;;;;;;;20.27;15.05;;;4.40;99.90;;;;;;5027131;28;20316;-63
2022/12/19 07:23:15;;;;;;;18.87;13.77;;;3.80;99.90;;;;;;5026210;28;20264;-63
2022/12/19 07:25:41;;;;;;;19.40;13.15;;;4.20;99.90;;;;;;5024752;28;20214;-63
2022/12/19 07:28:08;;;;;;;20.33;13.80;;;4.20;99.90;;;;;;5017094;28;20184;-63
2022/12/19 07:30:33;;;;;;;22.52;14.63;;;4.40;99.90;;;;;;5020990;28;20198;-63
2022/12/19 07:32:59;;;;;;;21.80;15.07;;;4.30;99.90;;;;;;5026887;28;20192;-63
2022/12/19 07:35:25;;;;;;;21.20;14.97;;;4.60;99.90;;;;;;5027519;28;20483;-63
2022/12/19 07:37:51;;;;;;;20.73;14.10;;;4.30;99.90;;;;;;5026469;28;20270;-63
2022/12/19 07:40:17;;;;;;;21.80;15.73;;;4.70;99.90;;;;;;5037201;28;20657;-63
2022/12/19 07:42:44;;;;;;;18.95;14.30;;;4.40;99.90;;;;;;5019076;28;20185;-64
2022/12/19 07:45:10;;;;;;;21.42;14.27;;;4.50;99.90;;;;;;5024224;28;20209;-64
2022/12/19 07:47:36;;;;;;;23.55;15.35;;;4.50;99.90;;;;;;5022041;28;20199;-64
2022/12/19 07:50:02;;;;;;;18.47;12.63;;;4.40;99.90;;;;;;5026931;28;20192;-64
2022/12/19 07:52:28;;;;;;;20.77;13.57;;;4.60;99.90;;;;;;5020681;28;20207;-64
2022/12/19 07:54:53;;;;;;;24.07;14.43;;;4.60;99.90;;;;;;5021449;28;20564;-65
2022/12/19 07:57:19;;;;;;;20.87;13.83;;;4.20;99.90;;;;;;5023903;28;20504;-65
2022/12/19 07:59:45;;;;;;;17.10;12.90;;;4.60;99.90;;;;;;5021520;28;20192;-64
2022/12/19 08:02:11;;;;;;;21.10;14.38;;;4.80;99.90;;;;;;5026223;28;20567;-64
2022/12/19 08:04:37;;;;;;;19.52;13.20;;;4.70;99.90;;;;;;5012163;28;20188;-64
2022/12/19 08:07:03;;;;;;;18.20;12.57;;;4.90;99.90;;;;;;5020707;28;20669;-65
2022/12/19 08:09:29;;;;;;;20.63;13.38;;;5.00;99.90;;;;;;5016902;28;20237;-65
2022/12/19 08:11:55;;;;;;;19.50;13.87;;;4.90;99.90;;;;;;5026601;28;20198;-64
2022/12/19 08:14:20;;;;;;;22.03;14.03;;;4.80;99.90;;;;;;5022977;28;20654;-65
2022/12/19 08:16:46;;;;;;;20.23;12.80;;;4.90;99.90;;;;;;5023174;28;20289;-65
2022/12/19 08:19:12;;;;;;;16.77;12.40;;;4.70;99.90;;;;;;5024316;28;20249;-65
2022/12/19 08:21:37;;;;;;;21.77;12.30;;;5.00;99.90;;;;;;5027252;28;20185;-65
2022/12/19 08:24:03;;;;;;;18.00;12.53;;;5.10;99.90;;;;;;5026188;28;20253;-65
2022/12/19 08:26:34;;;;;;;18.30;12.43;;;5.10;99.90;;;;;;5021528;28;20240;-65
2022/12/19 08:29:09;;;;;;;20.98;14.15;;;5.00;99.90;;;;;;5028939;28;20321;-65
2022/12/19 08:31:36;;;;;;;17.20;12.80;;;5.20;99.90;;;;;;5032866;28;20226;-64
2022/12/19 08:34:01;;;;;;;22.37;13.90;;;5.30;99.90;;;;;;5027254;28;20213;-65
2022/12/19 08:36:27;;;;;;;18.27;13.40;;;5.30;99.90;;;;;;5012273;28;20224;-65
2022/12/19 08:38:53;;;;;;;20.50;14.37;;;5.30;99.90;;;;;;5027800;28;20296;-65
2022/12/19 08:41:19;;;;;;;21.20;13.50;;;5.20;99.90;;;;;;5018003;28;20189;-64
2022/12/19 08:43:49;;;;;;;20.60;12.27;;;5.50;99.90;;;;;;5029306;28;20792;-64
2022/12/19 08:46:16;;;;;;;18.60;13.30;;;5.50;99.90;;;;;;5029053;28;20694;-63
2022/12/19 08:48:42;;;;;;;21.52;13.88;;;5.30;99.90;;;;;;5021235;28;20205;-63
2022/12/19 08:51:10;;;;;;;20.42;13.73;;;5.50;99.90;;;;;;5025056;28;20284;-64
2022/12/19 08:53:38;;;;;;;19.55;12.52;;;5.60;99.90;;;;;;5027528;28;20217;-64
2022/12/19 08:56:07;;;;;;;21.35;14.38;;;5.60;99.90;;;;;;5029359;28;20217;-64
2022/12/19 08:58:33;;;;;;;22.77;12.82;;;5.50;99.90;;;;;;5029597;28;20184;-64
2022/12/19 09:01:00;;;;;;;21.90;12.80;;;5.60;99.90;;;;;;5026201;28;20982;-64
2022/12/19 09:03:25;;;;;;;20.20;13.80;;;5.50;99.90;;;;;;5034092;28;20182;-64
2022/12/19 09:05:59;;;;;;;19.67;12.53;;;5.00;99.90;;;;;;5027142;28;20732;-64
2022/12/19 09:08:27;;;;;;;18.42;12.52;;;5.40;99.90;;;;;;5022335;28;20180;-64
2022/12/19 09:10:58;;;;;;;18.90;12.70;;;5.50;99.90;;;;;;5026129;28;20509;-65
2022/12/19 09:13:25;;;;;;;17.20;12.60;;;5.50;99.90;;;;;;5029333;28;20206;-65
2022/12/19 09:15:59;;;;;;;20.00;13.15;;;5.50;99.90;;;;;;5029272;28;20229;-64
2022/12/19 09:18:25;;;;;;;19.27;11.90;;;5.50;99.90;;;;;;5032456;28;20241;-64
2022/12/19 09:20:53;;;;;;;18.43;11.90;;;5.50;99.90;;;;;;5030768;28;20659;-65
2022/12/19 09:23:20;;;;;;;19.35;11.85;;;5.60;99.90;;;;;;5031441;28;20189;-65
2022/12/19 09:25:45;;;;;;;15.52;11.68;;;5.40;99.90;;;;;;5033371;28;20209;-63
2022/12/19 09:28:11;;;;;;;15.93;11.17;;;5.80;99.90;;;;;;5033496;28;20248;-63
2022/12/19 09:30:36;;;;;;;17.87;12.30;;;5.90;99.90;;;;;;5032929;28;20189;-63
2022/12/19 09:33:02;;;;;;;14.80;11.50;;;5.90;99.90;;;;;;5032559;28;20189;-63
2022/12/19 09:35:28;;;;;;;15.97;11.70;;;5.90;99.90;;;;;;5028974;28;20246;-63
2022/12/19 09:37:53;;;;;;;17.73;12.00;;;6.10;99.90;;;;;;5030504;28;20196;-62
2022/12/19 09:40:19;;;;;;;19.53;11.27;;;6.00;99.90;;;;;;5031313;28;20210;-63
2022/12/19 09:42:58;;;;;;;19.40;12.23;;;6.20;99.90;;;;;;5032882;28;20197;-64
2022/12/19 09:45:52;;;;;;;17.33;12.32;;;6.10;99.90;;;;;;5022634;28;20222;-64
2022/12/19 09:48:18;;;;;;;13.55;10.80;;;6.30;99.90;;;;;;5029319;28;20257;-64
2022/12/19 09:50:58;;;;;;;13.40;10.57;;;6.70;99.90;;;;;;5032511;28;20418;-65
2022/12/19 09:54:06;;;;;;;15.52;11.77;;;6.80;99.90;;;;;;5016214;28;20764;-63
2022/12/19 09:56:37;;;;;;;16.27;11.98;;;6.80;99.90;;;;;;5031840;28;20268;-64
2022/12/19 09:59:17;;;;;;;17.05;11.82;;;6.90;99.90;;;;;;5032889;28;20171;-65
2022/12/19 10:02:02;;;;;;;20.65;12.35;;;7.00;99.90;;;;;;5031209;28;20186;-64
2022/12/19 10:04:33;;;;;;;21.90;12.02;;;7.30;99.90;;;;;;5019735;28;20272;-63
2022/12/19 10:06:58;;;;;;;15.80;12.32;;;7.20;99.90;;;;;;5032060;28;20205;-63
2022/12/19 10:09:31;;;;;;;16.20;10.77;;;7.30;99.90;;;;;;5025133;28;20187;-64
2022/12/19 10:12:09;;;;;;;17.45;12.43;;;7.90;99.90;;;;;;5032357;28;20218;-63
2022/12/19 10:14:48;;;;;;;13.05;11.43;;;7.80;99.90;;;;;;5031413;28;20206;-63
2022/12/19 10:17:19;;;;;;;15.38;11.38;;;8.10;99.90;;;;;;5027333;28;20993;-63
2022/12/19 10:19:48;;;;;;;16.27;11.25;;;8.50;99.90;;;;;;5032098;28;20277;-63
2022/12/19 10:22:28;;;;;;;17.10;11.38;;;8.40;99.90;;;;;;5031641;28;20217;-63
2022/12/19 10:25:19;;;;;;;15.07;10.77;;;8.60;99.90;;;;;;5027873;28;20212;-63
2022/12/19 10:27:53;;;;;;;16.15;11.45;;;8.50;99.90;;;;;;5024342;28;20785;-63
2022/12/19 10:30:21;;;;;;;14.45;10.88;;;8.10;99.90;;;;;;5031830;28;20186;-65
2022/12/19 10:33:14;;;;;;;15.50;11.38;;;8.10;99.90;;;;;;5028116;28;20644;-65
2022/12/19 10:35:43;;;;;;;17.08;11.65;;;8.10;99.90;;;;;;5031530;28;20229;-67
2022/12/19 10:38:26;;;;;;;16.00;10.57;;;8.20;99.90;;;;;;5026281;28;20183;-64
2022/12/19 10:41:06;;;;;;;16.00;11.90;;;8.10;99.90;;;;;;5026217;28;20612;-66
2022/12/19 10:43:44;;;;;;;15.43;11.60;;;8.40;99.90;;;;;;5028686;28;20183;-66
2022/12/19 10:46:39;;;;;;;14.75;10.90;;;8.20;99.90;;;;;;5029476;28;20212;-66
2022/12/19 10:49:30;;;;;;;13.77;11.07;;;8.60;99.90;;;;;;5030702;28;20273;-65
2022/12/19 10:52:07;;;;;;;15.18;11.65;;;8.60;99.90;;;;;;5029448;28;20206;-66
2022/12/19 10:54:38;;;;;;;15.57;11.80;;;8.60;99.90;;;;;;5022215;28;20185;-65
2022/12/19 10:57:27;;;;;;;13.32;10.40;;;8.50;99.90;;;;;;5030361;28;20206;-67
2022/12/19 10:59:58;;;;;;;13.43;10.15;;;8.40;99.90;;;;;;5029112;28;20249;-65
2022/12/19 11:02:43;;;;;;;14.60;10.75;;;8.50;99.90;;;;;;5035141;28;20652;-65
2022/12/19 11:05:48;;;;;;;12.88;10.10;;;8.60;99.90;;;;;;5024376;28;20237;-65
2022/12/19 11:08:19;;;;;;;12.88;10.75;;;8.50;99.90;;;;;;5026137;28;20298;-65
2022/12/19 11:10:53;;;;;;;19.05;15.88;;;8.50;99.90;;;;;;5030860;28;20231;-66
2022/12/19 11:13:34;;;;;;;25.73;20.17;;;8.80;99.90;;;;;;5029830;28;20640;-67
2022/12/19 11:16:02;;;;;;;15.30;12.50;;;8.60;99.90;;;;;;5027441;28;20311;-66
2022/12/19 11:18:44;;;;;;;12.13;9.50;;;8.60;99.90;;;;;;5020743;28;20183;-66
2022/12/19 11:21:17;;;;;;;14.10;10.52;;;8.50;99.90;;;;;;5029355;28;20217;-67
2022/12/19 11:24:01;;;;;;;12.75;9.88;;;8.60;99.90;;;;;;5034526;28;20656;-64
2022/12/19 11:26:39;;;;;;;10.70;9.48;;;8.70;99.90;;;;;;5030267;28;20245;-64
2022/12/19 11:29:17;;;;;;;13.38;10.73;;;8.80;99.90;;;;;;5031100;28;20265;-63
2022/12/19 11:31:44;;;;;;;13.85;10.20;;;8.90;99.90;;;;;;5025054;28;20282;-63
2022/12/19 11:34:20;;;;;;;15.32;10.60;;;9.10;99.90;;;;;;5023670;28;20269;-64
2022/12/19 11:36:51;;;;;;;13.68;10.23;;;9.30;99.90;;;;;;5027775;28;20212;-63
2022/12/19 11:39:29;;;;;;;14.00;10.15;;;9.10;99.90;;;;;;5027347;28;20229;-63
2022/12/19 11:42:11;;;;;;;10.93;9.23;;;9.20;99.90;;;;;;5029038;28;20575;-63
2022/12/19 11:44:47;;;;;;;14.38;9.70;;;9.30;99.90;;;;;;5029155;28;20170;-63
2022/12/19 11:47:51;;;;;;;11.55;10.27;;;9.30;99.90;;;;;;5029610;28;20174;-63
2022/12/19 11:50:27;;;;;;;15.27;10.95;;;9.20;99.90;;;;;;5023875;28;20661;-65
2022/12/19 11:53:04;;;;;;;12.68;9.75;;;9.20;99.90;;;;;;5025317;28;20265;-63
2022/12/19 11:55:41;;;;;;;12.57;9.75;;;9.30;99.90;;;;;;5029709;28;20690;-63
2022/12/19 11:58:11;;;;;;;14.02;10.70;;;9.30;99.90;;;;;;5030036;28;20693;-63
2022/12/19 12:00:43;;;;;;;14.65;10.93;;;9.40;99.90;;;;;;5029347;28;20273;-62
2022/12/19 12:03:49;;;;;;;16.10;11.60;;;9.40;99.90;;;;;;5028375;28;20183;-63
2022/12/19 12:06:18;;;;;;;16.50;11.30;;;9.70;99.90;;;;;;5029462;28;20237;-63
2022/12/19 12:08:51;;;;;;;14.02;11.10;;;9.40;99.90;;;;;;5023043;28;20823;-63
2022/12/19 12:11:24;;;;;;;12.50;10.35;;;9.70;99.90;;;;;;5030748;28;20198;-63
2022/12/19 12:14:11;;;;;;;17.27;11.38;;;9.50;99.90;;;;;;5029283;28;20183;-63
2022/12/19 12:16:49;;;;;;;13.23;11.57;;;9.60;99.90;;;;;;5027664;28;20209;-63
2022/12/19 12:19:33;;;;;;;21.75;12.05;;;9.30;99.90;;;;;;5024913;28;20237;-63
2022/12/19 12:22:17;;;;;;;20.92;13.25;;;9.70;99.90;;;;;;5027850;28;20608;-63
2022/12/19 12:25:07;;;;;;;16.85;12.38;;;9.60;99.90;;;;;;5012440;28;20195;-64
2022/12/19 12:27:58;;;;;;;15.68;11.90;;;9.70;99.90;;;;;;5028099;28;20723;-63
2022/12/19 12:30:23;;;;;;;16.80;11.85;;;9.80;99.90;;;;;;5024317;28;20518;-63
2022/12/19 12:33:17;;;;;;;14.70;12.40;;;9.90;99.90;;;;;;5029809;28;20201;-63
2022/12/19 12:36:01;;;;;;;16.70;13.00;;;9.70;99.90;;;;;;5029158;28;20297;-63
2022/12/19 12:39:10;;;;;;;13.50;10.23;;;9.70;99.90;;;;;;5021596;28;20250;-63
2022/12/19 12:42:03;;;;;;;14.35;10.73;;;9.50;99.90;;;;;;5027084;28;20193;-63
2022/12/19 12:44:37;;;;;;;14.15;10.77;;;9.70;99.90;;;;;;5029367;28;20612;-63
2022/12/19 12:47:11;;;;;;;13.18;10.80;;;9.70;99.90;;;;;;5028123;28;20182;-63
2022/12/19 12:49:42;;;;;;;15.18;11.38;;;9.50;99.90;;;;;;5029333;28;20328;-63
2022/12/19 12:52:14;;;;;;;14.15;10.57;;;9.50;99.90;;;;;;5028181;28;20181;-63
2022/12/19 12:54:42;;;;;;;19.88;10.10;;;9.80;99.90;;;;;;5025526;28;20187;-63
2022/12/19 12:57:38;;;;;;;11.48;9.85;;;9.80;99.90;;;;;;5029230;28;20319;-62
2022/12/19 13:00:16;;;;;;;13.45;9.98;;;9.70;99.90;;;;;;5027906;28;20571;-64
2022/12/19 13:02:55;;;;;;;21.20;15.90;;;9.60;99.90;;;;;;5030320;28;20179;-63
2022/12/19 13:05:39;;;;;;;20.42;16.83;;;9.70;99.90;;;;;;5022942;28;20221;-62